createdAt,value
2024-04-12T00:01:41.372Z,95.40
2024-04-12T00:04:16.707Z,94.90
2024-04-12T00:06:52.148Z,95.30
2024-04-12T00:09:19.849Z,95.40
2024-04-12T00:11:50.896Z,95.20
2024-04-12T00:14:18.511Z,95.50
2024-04-12T00:16:51.258Z,95.60
2024-04-12T00:19:22.388Z,95.50
2024-04-12T00:21:53.767Z,95.30
2024-04-12T00:24:25.553Z,95.40
2024-04-12T00:26:55.152Z,95.30
2024-04-12T00:29:40.895Z,95.30
2024-04-12T00:32:16.777Z,95.10
2024-04-12T00:34:52.896Z,95.00
2024-04-12T00:37:22.227Z,95.40
2024-04-12T00:39:51.229Z,95.30
2024-04-12T00:42:33.601Z,94.70
2024-04-12T00:45:03.607Z,94.80
2024-04-12T00:47:33.897Z,94.80
2024-04-12T00:50:03.647Z,95.20
2024-04-12T00:52:34.850Z,95.10
2024-04-12T00:55:09.799Z,94.90
2024-04-12T00:57:38.726Z,95.10
2024-04-12T01:00:14.535Z,95.00
2024-04-12T01:02:44.992Z,95.00
2024-04-12T01:05:19.833Z,95.00
2024-04-12T01:07:51.929Z,94.90
2024-04-12T01:10:27.395Z,94.90
2024-04-12T01:12:57.453Z,94.80
2024-04-12T01:15:26.244Z,95.10
2024-04-12T01:17:53.998Z,95.00
2024-04-12T01:20:23.614Z,95.00
2024-04-12T01:22:51.064Z,94.90
2024-04-12T01:25:18.799Z,95.00
2024-04-12T01:27:46.244Z,94.70
2024-04-12T01:30:13.197Z,94.90
2024-04-12T01:32:40.188Z,95.10
2024-04-12T01:35:08.665Z,95.00
2024-04-12T01:37:35.930Z,94.80
2024-04-12T01:40:04.248Z,95.10
2024-04-12T01:42:31.746Z,94.70
2024-04-12T01:45:16.930Z,95.00
2024-04-12T01:47:48.278Z,95.20
2024-04-12T01:50:23.199Z,95.20
2024-04-12T01:52:55.842Z,94.90
2024-04-12T01:55:25.843Z,95.00
2024-04-12T01:57:57.529Z,94.80
2024-04-12T02:00:25.915Z,94.70
2024-04-12T02:02:55.332Z,94.80
2024-04-12T02:05:35.938Z,94.90
2024-04-12T02:08:08.968Z,94.90
2024-04-12T02:10:42.637Z,94.80
2024-04-12T02:13:18.194Z,94.80
2024-04-12T02:15:47.071Z,95.00
2024-04-12T02:18:15.638Z,94.90
2024-04-12T02:20:46.397Z,94.90
2024-04-12T02:23:14.817Z,95.00
2024-04-12T02:25:42.870Z,95.00
2024-04-12T02:28:14.247Z,95.10
2024-04-12T02:30:46.056Z,94.90
2024-04-12T02:33:18.163Z,94.70
2024-04-12T02:35:45.725Z,94.90
2024-04-12T02:38:17.136Z,94.90
2024-04-12T02:40:45.179Z,95.10
2024-04-12T02:43:16.334Z,95.00
2024-04-12T02:45:50.114Z,95.10
2024-04-12T02:48:23.833Z,95.00
2024-04-12T02:50:55.588Z,95.00
2024-04-12T02:53:24.410Z,94.70
2024-04-12T02:56:11.614Z,94.90
2024-04-12T02:58:40.875Z,94.90
2024-04-12T03:01:13.563Z,95.10
2024-04-12T03:03:47.057Z,95.30
2024-04-12T03:06:14.418Z,95.40
2024-04-12T03:08:49.002Z,95.10
2024-04-12T03:11:24.371Z,95.30
2024-04-12T03:13:52.402Z,95.30
2024-04-12T03:16:22.799Z,95.50
2024-04-12T03:18:52.830Z,95.30
2024-04-12T03:21:25.357Z,95.30
2024-04-12T03:23:52.887Z,95.40
2024-04-12T03:26:23.104Z,95.40
2024-04-12T03:28:57.876Z,95.60
2024-04-12T03:31:28.522Z,95.30
2024-04-12T03:34:01.603Z,95.50
2024-04-12T03:36:35.139Z,95.30
2024-04-12T03:39:23.908Z,95.20
2024-04-12T03:41:58.976Z,95.60
2024-04-12T03:44:27.136Z,95.70
2024-04-12T03:46:54.435Z,95.80
2024-04-12T03:49:22.622Z,95.80
2024-04-12T03:51:53.227Z,95.50
2024-04-12T03:54:20.217Z,95.60
2024-04-12T03:56:53.423Z,95.30
2024-04-12T03:59:25.754Z,95.70
2024-04-12T04:01:55.845Z,95.80
2024-04-12T04:04:38.317Z,95.70
2024-04-12T04:07:06.550Z,96.00
2024-04-12T04:09:33.756Z,95.90
2024-04-12T04:12:00.675Z,95.60
2024-04-12T04:14:28.123Z,95.60
2024-04-12T04:17:02.400Z,95.80
2024-04-12T04:19:37.150Z,95.60
2024-04-12T04:22:40.952Z,95.80
2024-04-12T04:25:11.747Z,95.70
2024-04-12T04:27:39.508Z,95.90
2024-04-12T04:30:07.525Z,95.70
2024-04-12T04:32:34.753Z,95.60
2024-04-12T04:35:10.455Z,95.70
2024-04-12T04:37:39.209Z,95.60
2024-04-12T04:40:12.887Z,95.50
2024-04-12T04:42:40.334Z,95.70
2024-04-12T04:45:10.018Z,95.60
2024-04-12T04:47:40.550Z,95.80
2024-04-12T04:50:09.772Z,95.50
2024-04-12T04:52:38.192Z,95.30
2024-04-12T04:55:08.181Z,95.40
2024-04-12T04:57:36.827Z,95.20
2024-04-12T05:00:08.087Z,95.20
2024-04-12T05:02:36.399Z,95.10
2024-04-12T05:05:07.020Z,95.20
2024-04-12T05:07:37.360Z,95.40
2024-04-12T05:10:15.641Z,95.10
2024-04-12T05:12:42.687Z,95.50
2024-04-12T05:15:32.080Z,95.10
2024-04-12T05:18:04.825Z,95.30
2024-04-12T05:20:40.839Z,95.30
2024-04-12T05:23:13.355Z,95.00
2024-04-12T05:25:44.778Z,95.30
2024-04-12T05:28:13.780Z,95.10
2024-04-12T05:30:43.700Z,95.00
2024-04-12T05:33:11.732Z,95.00
2024-04-12T05:35:38.992Z,94.80
2024-04-12T05:38:08.980Z,94.80
2024-04-12T05:40:42.495Z,94.10
2024-04-12T05:43:15.100Z,94.30
2024-04-12T05:45:43.394Z,94.70
2024-04-12T05:48:14.540Z,94.60
2024-04-12T05:50:42.066Z,94.60
2024-04-12T05:53:12.554Z,94.40
2024-04-12T05:55:45.521Z,94.40
2024-04-12T05:58:13.112Z,94.50
2024-04-12T06:00:42.674Z,94.40
2024-04-12T06:03:15.500Z,94.40
2024-04-12T06:05:43.288Z,94.40
2024-04-12T06:08:13.945Z,94.40
2024-04-12T06:10:45.532Z,94.20
2024-04-12T06:13:12.832Z,94.10
2024-04-12T06:15:39.741Z,93.90
2024-04-12T06:18:09.892Z,93.90
2024-04-12T06:20:37.451Z,94.10
2024-04-12T06:23:16.000Z,94.30
2024-04-12T06:25:46.802Z,94.30
2024-04-12T06:28:14.762Z,93.90
2024-04-12T06:30:42.687Z,94.10
2024-04-12T06:33:09.597Z,93.90
2024-04-12T06:35:37.800Z,93.40
2024-04-12T06:38:09.703Z,94.00
2024-04-12T06:40:38.566Z,93.70
2024-04-12T06:43:10.348Z,94.00
2024-04-12T06:45:42.832Z,93.80
2024-04-12T06:48:18.156Z,94.10
2024-04-12T06:50:57.774Z,93.30
2024-04-12T06:53:25.910Z,93.60
2024-04-12T06:55:56.395Z,93.50
2024-04-12T06:58:23.253Z,93.50
2024-04-12T07:00:58.000Z,93.30
2024-04-12T07:03:25.737Z,93.20
2024-04-12T07:05:54.983Z,93.20
2024-04-12T07:08:28.322Z,93.20
2024-04-12T07:10:57.440Z,92.90
2024-04-12T07:13:28.488Z,92.90
2024-04-12T07:16:02.448Z,92.40
2024-04-12T07:18:31.012Z,92.60
2024-04-12T07:21:16.386Z,92.50
2024-04-12T07:23:50.889Z,91.90
2024-04-12T07:26:25.624Z,91.30
2024-04-12T07:28:59.842Z,91.40
2024-04-12T07:31:27.260Z,91.50
2024-04-12T07:34:00.404Z,91.60
2024-04-12T07:36:34.183Z,91.00
2024-04-12T07:39:03.082Z,91.30
2024-04-12T07:41:33.691Z,90.90
2024-04-12T07:44:05.477Z,90.90
2024-04-12T07:46:36.086Z,90.70
2024-04-12T07:49:04.438Z,91.20
2024-04-12T07:51:40.635Z,91.10
2024-04-12T07:54:13.331Z,90.30
2024-04-12T07:56:58.094Z,90.60
2024-04-12T07:59:27.958Z,90.70
2024-04-12T08:04:47.279Z,89.50
2024-04-12T08:07:19.490Z,88.80
2024-04-12T08:09:47.445Z,88.70
2024-04-12T08:12:16.580Z,87.10
2024-04-12T08:14:54.885Z,88.40
2024-04-12T08:17:26.445Z,87.90
2024-04-12T08:19:58.421Z,87.40
2024-04-12T08:22:27.366Z,87.00
2024-04-12T08:24:59.138Z,87.60
2024-04-12T08:27:26.595Z,83.20
2024-04-12T08:29:54.388Z,84.50
2024-04-12T08:32:29.345Z,84.50
2024-04-12T08:35:00.174Z,82.50
2024-04-12T08:37:38.489Z,83.50
2024-04-12T08:40:10.087Z,82.40
2024-04-12T08:42:38.450Z,82.00
2024-04-12T08:45:15.952Z,82.40
2024-04-12T08:47:53.639Z,81.90
2024-04-12T08:50:25.508Z,81.30
2024-04-12T08:52:54.931Z,81.50
2024-04-12T08:55:25.248Z,80.40
2024-04-12T08:58:02.074Z,79.40
2024-04-12T09:03:28.004Z,79.20
2024-04-12T09:05:55.486Z,78.80
2024-04-12T09:08:23.792Z,78.00
2024-04-12T09:10:54.657Z,79.10
2024-04-12T09:13:22.404Z,78.90
2024-04-12T09:15:51.683Z,78.60
2024-04-12T09:18:27.504Z,78.40
2024-04-12T09:21:07.189Z,78.00
2024-04-12T09:23:34.909Z,76.90
2024-04-12T09:26:22.776Z,76.00
2024-04-12T09:28:51.709Z,76.80
2024-04-12T09:31:37.996Z,75.60
2024-04-12T09:34:23.997Z,74.50
2024-04-12T09:36:57.544Z,74.90
2024-04-12T09:39:25.256Z,74.20
2024-04-12T09:41:57.744Z,75.70
2024-04-12T09:47:16.868Z,72.90
2024-04-12T09:50:03.812Z,74.50
2024-04-12T09:52:49.768Z,73.80
2024-04-12T09:55:46.284Z,73.90
2024-04-12T09:58:32.256Z,73.40
2024-04-12T10:01:18.707Z,73.90
2024-04-12T10:04:05.301Z,73.90
2024-04-12T10:07:09.486Z,74.70
2024-04-12T10:13:03.630Z,73.50
2024-04-12T10:15:49.756Z,73.90
2024-04-12T10:18:36.926Z,72.80
2024-04-12T10:21:29.187Z,73.60
2024-04-12T10:24:22.677Z,73.10
2024-04-12T10:27:08.123Z,73.50
2024-04-12T10:29:53.610Z,72.60
2024-04-12T10:35:45.826Z,73.00
2024-04-12T10:38:27.153Z,72.00
2024-04-12T10:41:08.761Z,71.80
2024-04-12T10:43:42.864Z,70.90
2024-04-12T10:49:01.037Z,71.10
2024-04-12T10:51:29.648Z,68.70
2024-04-12T10:53:58.307Z,69.70
2024-04-12T10:56:27.855Z,68.20
2024-04-12T10:58:57.541Z,70.10
2024-04-12T11:01:25.091Z,69.50
2024-04-12T11:03:58.498Z,68.50
2024-04-12T11:09:19.833Z,69.80
2024-04-12T11:11:47.762Z,69.30
2024-04-12T11:14:27.250Z,69.00
2024-04-12T11:17:12.857Z,69.40
2024-04-12T11:19:58.553Z,69.50
2024-04-12T11:22:47.710Z,68.20
2024-04-12T11:25:34.044Z,69.10
2024-04-12T11:28:23.088Z,69.10
2024-04-12T11:31:08.776Z,68.90
2024-04-12T11:36:11.850Z,69.10
2024-04-12T11:38:40.923Z,68.90
2024-04-12T11:41:17.026Z,68.90
2024-04-12T11:43:47.585Z,68.80
2024-04-12T11:46:18.407Z,69.70
2024-04-12T11:48:45.314Z,69.60
2024-04-12T11:51:16.588Z,70.40
2024-04-12T11:53:48.046Z,70.40
2024-04-12T11:56:14.901Z,70.20
2024-04-12T11:58:45.115Z,70.40
2024-04-12T12:01:12.438Z,70.00
2024-04-12T12:03:39.295Z,70.30
2024-04-12T12:06:08.021Z,69.00
2024-04-12T12:08:41.779Z,68.90
2024-04-12T12:11:13.063Z,69.20
2024-04-12T12:13:43.652Z,69.40
2024-04-12T12:16:16.224Z,68.70
2024-04-12T12:18:46.713Z,68.50
2024-04-12T12:21:15.675Z,68.70
2024-04-12T12:23:42.586Z,69.10
2024-04-12T12:26:10.221Z,65.70
2024-04-12T12:28:37.271Z,67.30
2024-04-12T12:31:07.299Z,66.30
2024-04-12T12:33:39.875Z,65.30
2024-04-12T12:36:07.322Z,65.40
2024-04-12T12:38:34.737Z,64.80
2024-04-12T12:41:01.513Z,65.40
2024-04-12T12:43:29.562Z,65.50
2024-04-12T12:45:59.828Z,65.40
2024-04-12T12:51:16.185Z,65.30
2024-04-12T12:53:45.068Z,66.30
2024-04-12T12:56:14.288Z,66.20
2024-04-12T12:58:41.843Z,66.10
2024-04-12T13:01:09.114Z,66.00
2024-04-12T13:03:38.031Z,66.40
2024-04-12T13:06:08.665Z,63.60
2024-04-12T13:08:41.529Z,64.10
2024-04-12T13:11:10.120Z,64.00
2024-04-12T13:13:41.338Z,64.70
2024-04-12T13:16:12.570Z,64.80
2024-04-12T13:18:53.558Z,65.30
2024-04-12T13:21:21.218Z,65.60
2024-04-12T13:23:48.299Z,66.00
2024-04-12T13:26:24.913Z,66.10
2024-04-12T13:28:53.899Z,67.50
2024-04-12T13:31:24.786Z,66.50
2024-04-12T13:33:52.638Z,66.70
2024-04-12T13:36:21.672Z,66.70
2024-04-12T13:38:49.594Z,66.80
2024-04-12T13:41:17.133Z,67.50
2024-04-12T13:47:06.810Z,66.50
2024-04-12T13:49:52.356Z,66.50
2024-04-12T13:52:19.116Z,65.30
2024-04-12T13:54:52.182Z,63.60
2024-04-12T13:57:19.341Z,63.20
2024-04-12T13:59:46.941Z,62.50
2024-04-12T14:02:14.091Z,63.10
2024-04-12T14:04:40.900Z,63.30
2024-04-12T14:07:10.530Z,63.20
2024-04-12T14:09:37.366Z,64.30
2024-04-12T14:12:04.435Z,64.40
2024-04-12T14:14:31.346Z,65.70
2024-04-12T14:17:00.816Z,64.80
2024-04-12T14:19:27.727Z,64.00
2024-04-12T14:21:55.438Z,64.60
2024-04-12T14:24:42.162Z,63.40
2024-04-12T14:27:09.366Z,64.10
2024-04-12T14:29:36.805Z,63.10
2024-04-12T14:32:07.256Z,63.50
2024-04-12T14:34:36.066Z,62.00
2024-04-12T14:37:07.226Z,63.00
2024-04-12T14:39:34.612Z,61.90
2024-04-12T14:42:03.565Z,62.10
2024-04-12T14:44:40.352Z,61.30
2024-04-12T14:47:08.392Z,61.70
2024-04-12T14:49:35.293Z,62.00
2024-04-12T14:52:02.296Z,62.00
2024-04-12T14:54:32.783Z,62.10
2024-04-12T14:56:59.593Z,62.40
2024-04-12T14:59:26.419Z,62.50
2024-04-12T15:01:53.344Z,61.80
2024-04-12T15:04:38.816Z,60.80
2024-04-12T15:07:24.082Z,60.70
2024-04-12T15:10:09.628Z,60.80
2024-04-12T15:12:55.059Z,61.40
2024-04-12T15:15:40.651Z,59.40
2024-04-12T15:21:28.932Z,60.00
2024-04-12T15:24:14.364Z,58.50
2024-04-12T15:26:59.770Z,59.70
2024-04-12T15:29:45.225Z,59.00
2024-04-12T15:32:30.983Z,59.00
2024-04-12T15:35:16.593Z,59.90
2024-04-12T15:38:01.849Z,59.50
2024-04-12T15:40:47.429Z,59.80
2024-04-12T15:43:33.048Z,59.30
2024-04-12T15:46:18.753Z,59.90
2024-04-12T15:48:45.658Z,60.10
2024-04-12T15:51:17.942Z,60.70
2024-04-12T15:53:47.757Z,60.30
2024-04-12T15:56:17.239Z,61.00
2024-04-12T15:59:04.183Z,61.10
2024-04-12T16:01:49.456Z,61.10
2024-04-12T16:04:35.330Z,61.50
2024-04-12T16:07:20.642Z,60.90
2024-04-12T16:10:06.390Z,60.70
2024-04-12T16:12:34.385Z,61.10
2024-04-12T16:15:04.407Z,61.80
2024-04-12T16:17:32.544Z,62.30
2024-04-12T16:19:59.526Z,62.70
2024-04-12T16:22:28.441Z,63.20
2024-04-12T16:24:55.647Z,63.00
2024-04-12T16:27:22.710Z,62.30
2024-04-12T16:29:49.628Z,63.00
2024-04-12T16:32:17.615Z,64.00
2024-04-12T16:34:44.627Z,63.10
2024-04-12T16:37:14.488Z,63.60
2024-04-12T16:39:41.431Z,63.50
2024-04-12T16:42:08.495Z,63.50
2024-04-12T16:44:35.369Z,63.80
2024-04-12T16:47:02.210Z,64.30
2024-04-12T16:49:29.218Z,63.50
2024-04-12T16:51:56.392Z,64.20
2024-04-12T16:54:26.338Z,64.60
2024-04-12T16:56:53.225Z,64.80
2024-04-12T16:59:20.275Z,65.10
2024-04-12T17:01:47.101Z,65.20
2024-04-12T17:04:14.263Z,65.30
2024-04-12T17:06:42.055Z,65.60
2024-04-12T17:09:11.131Z,66.10
2024-04-12T17:11:39.366Z,66.10
2024-04-12T17:14:06.510Z,66.40
2024-04-12T17:16:33.523Z,66.30
2024-04-12T17:19:01.158Z,66.50
2024-04-12T17:21:28.091Z,66.90
2024-04-12T17:23:55.425Z,67.00
2024-04-12T17:26:22.386Z,67.40
2024-04-12T17:28:50.096Z,67.30
2024-04-12T17:31:17.146Z,67.30
2024-04-12T17:33:44.105Z,67.30
2024-04-12T17:36:12.203Z,67.30
2024-04-12T17:38:40.320Z,67.20
2024-04-12T17:41:07.809Z,67.40
2024-04-12T17:43:35.028Z,67.50
2024-04-12T17:46:01.924Z,67.60
2024-04-12T17:48:29.807Z,67.90
2024-04-12T17:50:57.225Z,68.20
2024-04-12T17:53:24.504Z,68.40
2024-04-12T17:55:51.619Z,68.50
2024-04-12T17:58:18.471Z,68.30
2024-04-12T18:00:48.225Z,68.30
2024-04-12T18:03:15.371Z,68.30
2024-04-12T18:05:42.390Z,68.40
2024-04-12T18:08:09.156Z,69.00
2024-04-12T18:10:36.125Z,68.90
2024-04-12T18:13:02.964Z,69.20
2024-04-12T18:15:29.802Z,69.20
2024-04-12T18:17:56.724Z,69.20
2024-04-12T18:20:25.835Z,69.40
2024-04-12T18:22:53.683Z,69.70
2024-04-12T18:25:20.708Z,69.90
2024-04-12T18:27:47.622Z,69.80
2024-04-12T18:30:14.517Z,69.80
2024-04-12T18:32:42.524Z,69.70
2024-04-12T18:35:13.145Z,70.10
2024-04-12T18:38:01.588Z,70.20
2024-04-12T18:40:46.940Z,70.20
2024-04-12T18:43:32.389Z,70.40
2024-04-12T18:45:59.248Z,70.80
2024-04-12T18:48:28.191Z,71.10
2024-04-12T18:50:55.077Z,71.40
2024-04-12T18:53:23.006Z,71.30
2024-04-12T18:55:50.140Z,71.60
2024-04-12T18:58:17.010Z,71.30
2024-04-12T19:00:49.555Z,71.30
2024-04-12T19:03:16.577Z,71.10
2024-04-12T19:05:45.542Z,71.20
2024-04-12T19:08:12.404Z,71.60
2024-04-12T19:10:41.304Z,71.70
2024-04-12T19:13:08.878Z,71.70
2024-04-12T19:15:41.965Z,71.90
2024-04-12T19:18:10.832Z,71.90
2024-04-12T19:20:44.142Z,71.80
2024-04-12T19:23:12.218Z,71.90
2024-04-12T19:25:39.336Z,72.10
2024-04-12T19:28:06.508Z,72.10
2024-04-12T19:30:37.663Z,72.10
2024-04-12T19:33:04.763Z,72.10
2024-04-12T19:35:31.719Z,72.10
2024-04-12T19:37:58.579Z,72.70
2024-04-12T19:40:25.434Z,72.80
2024-04-12T19:42:52.215Z,73.10
2024-04-12T19:45:19.078Z,72.90
2024-04-12T19:47:45.949Z,73.50
2024-04-12T19:50:13.993Z,73.30
2024-04-12T19:52:47.750Z,74.00
2024-04-12T19:55:21.141Z,74.20
2024-04-12T19:57:47.908Z,74.00
2024-04-12T20:00:14.846Z,74.40
2024-04-12T20:02:41.695Z,74.30
2024-04-12T20:05:08.812Z,74.80
2024-04-12T20:07:35.566Z,75.40
2024-04-12T20:10:02.391Z,75.20
2024-04-12T20:12:29.208Z,75.40
2024-04-12T20:14:56.479Z,75.40
2024-04-12T20:17:23.451Z,75.70
2024-04-12T20:19:53.352Z,76.00
2024-04-12T20:22:23.341Z,76.30
2024-04-12T20:24:50.230Z,76.40
2024-04-12T20:27:20.546Z,76.80
2024-04-12T20:30:07.763Z,77.00
2024-04-12T20:32:37.997Z,77.30
2024-04-12T20:35:13.982Z,77.40
2024-04-12T20:37:40.826Z,77.40
2024-04-12T20:40:09.010Z,77.10
2024-04-12T20:42:36.100Z,77.10
2024-04-12T20:45:03.476Z,77.10
2024-04-12T20:47:30.454Z,77.10
2024-04-12T20:49:57.409Z,77.40
2024-04-12T20:52:24.463Z,78.00
2024-04-12T20:54:51.254Z,78.60
2024-04-12T20:57:19.734Z,78.30
2024-04-12T20:59:52.357Z,78.10
2024-04-12T21:02:19.542Z,78.40
2024-04-12T21:07:40.135Z,78.40
2024-04-12T21:10:06.919Z,78.30
2024-04-12T21:12:33.921Z,78.70
2024-04-12T21:15:00.918Z,79.10
2024-04-12T21:17:27.748Z,78.90
2024-04-12T21:19:54.521Z,78.80
2024-04-12T21:22:21.292Z,78.70
2024-04-12T21:24:48.142Z,78.80
2024-04-12T21:27:14.955Z,79.00
2024-04-12T21:29:43.084Z,79.20
2024-04-12T21:32:09.911Z,79.00
2024-04-12T21:34:36.770Z,79.00
2024-04-12T21:37:05.363Z,79.80
2024-04-12T21:39:32.425Z,78.80
2024-04-12T21:41:59.296Z,79.10
2024-04-12T21:44:26.100Z,79.60
2024-04-12T21:46:54.419Z,79.70
2024-04-12T21:49:21.205Z,80.40
2024-04-12T21:51:47.974Z,81.10
2024-04-12T21:54:14.794Z,80.60
2024-04-12T21:56:41.578Z,81.20
2024-04-12T21:59:09.527Z,81.50
2024-04-12T22:01:36.301Z,81.50
2024-04-12T22:04:03.261Z,81.70
2024-04-12T22:06:30.243Z,82.40
2024-04-12T22:08:57.182Z,82.60
2024-04-12T22:11:24.919Z,82.30
2024-04-12T22:13:51.984Z,82.60
2024-04-12T22:16:18.762Z,83.10
2024-04-12T22:18:45.584Z,82.80
2024-04-12T22:21:21.208Z,82.90
2024-04-12T22:23:49.476Z,83.00
2024-04-12T22:26:22.210Z,83.00
2024-04-12T22:28:50.359Z,82.90
2024-04-12T22:31:19.428Z,83.00
2024-04-12T22:33:51.270Z,83.00
2024-04-12T22:36:20.954Z,82.40
2024-04-12T22:38:48.612Z,82.30
2024-04-12T22:41:15.468Z,82.50
2024-04-12T22:43:42.218Z,82.10
2024-04-12T22:46:08.988Z,81.90
2024-04-12T22:48:37.726Z,81.80
2024-04-12T22:51:08.919Z,82.00
2024-04-12T22:53:36.457Z,81.60
2024-04-12T22:56:03.549Z,81.60
2024-04-12T22:58:30.381Z,81.40
2024-04-12T23:00:57.255Z,81.50
2024-04-12T23:03:24.064Z,81.40
2024-04-12T23:05:50.844Z,81.60
2024-04-12T23:08:17.755Z,81.80
2024-04-12T23:10:44.552Z,81.90
2024-04-12T23:13:12.941Z,82.00
2024-04-12T23:15:39.986Z,82.10
2024-04-12T23:18:06.805Z,82.00
2024-04-12T23:20:33.666Z,82.40
2024-04-12T23:23:00.411Z,82.50
2024-04-12T23:25:27.224Z,82.00
2024-04-12T23:27:53.990Z,82.20
2024-04-12T23:30:20.939Z,82.10
2024-04-12T23:32:47.866Z,82.20
2024-04-12T23:35:14.973Z,82.10
2024-04-12T23:37:41.729Z,82.30
2024-04-12T23:40:09.837Z,82.20
2024-04-12T23:42:36.922Z,82.00
2024-04-12T23:45:04.112Z,82.00
2024-04-12T23:47:31.085Z,81.80
2024-04-12T23:49:58.004Z,82.00
2024-04-12T23:52:27.150Z,82.30
2024-04-12T23:54:54.144Z,82.20
2024-04-12T23:57:20.952Z,82.40
2024-04-12T23:59:48.495Z,82.00
